sensor_id;sensor_type;location;lat;lon;timestamp;temperature;humidity
62339;DHT22;48368;53.406;6.214;2022-10-18T00:00:33;12.60;99.90
62339;DHT22;48368;53.406;6.214;2022-10-18T00:02:58;12.60;99.90
62339;DHT22;48368;53.406;6.214;2022-10-18T00:05:24;12.60;99.90
62339;DHT22;48368;53.406;6.214;2022-10-18T00:07:50;12.60;99.90
62339;DHT22;48368;53.406;6.214;2022-10-18T00:10:16;12.60;99.90
62339;DHT22;48368;53.406;6.214;2022-10-18T00:12:41;12.60;99.90
62339;DHT22;48368;53.406;6.214;2022-10-18T00:15:07;12.60;99.90
62339;DHT22;48368;53.406;6.214;2022-10-18T00:17:34;12.70;99.90
62339;DHT22;48368;53.406;6.214;2022-10-18T00:20:00;12.70;99.90
62339;DHT22;48368;53.406;6.214;2022-10-18T00:22:26;12.70;99.90
62339;DHT22;48368;53.406;6.214;2022-10-18T00:24:51;12.70;99.90
62339;DHT22;48368;53.406;6.214;2022-10-18T00:27:17;12.70;99.90
62339;DHT22;48368;53.406;6.214;2022-10-18T00:29:43;12.70;99.90
62339;DHT22;48368;53.406;6.214;2022-10-18T00:32:09;12.70;99.90
62339;DHT22;48368;53.406;6.214;2022-10-18T00:34:37;12.70;99.90
62339;DHT22;48368;53.406;6.214;2022-10-18T00:37:03;12.70;99.90
62339;DHT22;48368;53.406;6.214;2022-10-18T00:39:29;12.70;99.90
62339;DHT22;48368;53.406;6.214;2022-10-18T00:41:54;12.70;99.90
62339;DHT22;48368;53.406;6.214;2022-10-18T00:46:49;12.60;99.90
62339;DHT22;48368;53.406;6.214;2022-10-18T00:49:20;12.70;99.90
62339;DHT22;48368;53.406;6.214;2022-10-18T00:51:57;12.70;99.90
62339;DHT22;48368;53.406;6.214;2022-10-18T00:54:23;12.70;99.90
62339;DHT22;48368;53.406;6.214;2022-10-18T00:56:50;12.70;99.90
62339;DHT22;48368;53.406;6.214;2022-10-18T00:59:17;12.70;99.90
62339;DHT22;48368;53.406;6.214;2022-10-18T01:01:43;12.70;99.90
62339;DHT22;48368;53.406;6.214;2022-10-18T01:04:10;12.70;99.90
62339;DHT22;48368;53.406;6.214;2022-10-18T01:15:29;12.50;99.90
62339;DHT22;48368;53.406;6.214;2022-10-18T01:18:08;12.60;99.90
62339;DHT22;48368;53.406;6.214;2022-10-18T01:30:03;12.50;99.90
62339;DHT22;48368;53.406;6.214;2022-10-18T01:32:46;12.50;99.90
62339;DHT22;48368;53.406;6.214;2022-10-18T01:35:16;12.50;99.90
62339;DHT22;48368;53.406;6.214;2022-10-18T01:37:45;12.40;99.90
62339;DHT22;48368;53.406;6.214;2022-10-18T01:40:14;12.50;99.90
62339;DHT22;48368;53.406;6.214;2022-10-18T01:42:42;12.50;99.90
62339;DHT22;48368;53.406;6.214;2022-10-18T01:45:09;12.40;99.90
62339;DHT22;48368;53.406;6.214;2022-10-18T01:47:36;12.40;99.90
62339;DHT22;48368;53.406;6.214;2022-10-18T01:50:04;12.40;99.90
62339;DHT22;48368;53.406;6.214;2022-10-18T01:52:30;12.30;99.90
62339;DHT22;48368;53.406;6.214;2022-10-18T01:54:57;12.40;99.90
62339;DHT22;48368;53.406;6.214;2022-10-18T01:57:58;12.30;99.90
62339;DHT22;48368;53.406;6.214;2022-10-18T02:00:47;12.40;99.90
62339;DHT22;48368;53.406;6.214;2022-10-18T02:03:25;12.30;99.90
62339;DHT22;48368;53.406;6.214;2022-10-18T02:06:08;12.30;99.90
62339;DHT22;48368;53.406;6.214;2022-10-18T02:08:52;12.20;99.90
62339;DHT22;48368;53.406;6.214;2022-10-18T02:11:18;12.20;99.90
62339;DHT22;48368;53.406;6.214;2022-10-18T02:13:47;12.20;99.90
62339;DHT22;48368;53.406;6.214;2022-10-18T02:16:19;12.10;99.90
62339;DHT22;48368;53.406;6.214;2022-10-18T02:18:49;12.10;99.90
62339;DHT22;48368;53.406;6.214;2022-10-18T02:21:18;12.10;99.90
62339;DHT22;48368;53.406;6.214;2022-10-18T02:23:46;12.10;99.90
62339;DHT22;48368;53.406;6.214;2022-10-18T02:26:13;12.00;99.90
62339;DHT22;48368;53.406;6.214;2022-10-18T02:28:39;12.00;99.90
62339;DHT22;48368;53.406;6.214;2022-10-18T02:31:23;11.90;99.90
62339;DHT22;48368;53.406;6.214;2022-10-18T02:34:16;11.90;99.90
62339;DHT22;48368;53.406;6.214;2022-10-18T02:36:54;11.90;99.90
62339;DHT22;48368;53.406;6.214;2022-10-18T02:39:24;11.90;99.90
62339;DHT22;48368;53.406;6.214;2022-10-18T02:41:52;11.80;99.90
62339;DHT22;48368;53.406;6.214;2022-10-18T02:44:18;11.80;99.90
62339;DHT22;48368;53.406;6.214;2022-10-18T02:46:44;11.70;99.90
62339;DHT22;48368;53.406;6.214;2022-10-18T02:49:10;11.70;99.90
62339;DHT22;48368;53.406;6.214;2022-10-18T02:51:36;11.60;99.90
62339;DHT22;48368;53.406;6.214;2022-10-18T02:54:02;11.60;99.90
62339;DHT22;48368;53.406;6.214;2022-10-18T02:56:27;11.60;99.90
62339;DHT22;48368;53.406;6.214;2022-10-18T02:58:53;11.60;99.90
62339;DHT22;48368;53.406;6.214;2022-10-18T03:01:19;11.50;99.90
62339;DHT22;48368;53.406;6.214;2022-10-18T03:03:44;11.50;99.90
62339;DHT22;48368;53.406;6.214;2022-10-18T03:06:10;11.40;99.90
62339;DHT22;48368;53.406;6.214;2022-10-18T03:08:35;11.40;99.90
62339;DHT22;48368;53.406;6.214;2022-10-18T03:11:01;11.40;99.90
62339;DHT22;48368;53.406;6.214;2022-10-18T03:13:27;11.30;99.90
62339;DHT22;48368;53.406;6.214;2022-10-18T03:15:52;11.30;99.90
62339;DHT22;48368;53.406;6.214;2022-10-18T03:18:18;11.20;99.90
62339;DHT22;48368;53.406;6.214;2022-10-18T03:20:44;11.20;99.90
62339;DHT22;48368;53.406;6.214;2022-10-18T03:23:09;11.20;99.90
62339;DHT22;48368;53.406;6.214;2022-10-18T03:25:35;11.20;99.90
62339;DHT22;48368;53.406;6.214;2022-10-18T03:28:01;11.20;99.90
62339;DHT22;48368;53.406;6.214;2022-10-18T03:30:26;11.20;99.90
62339;DHT22;48368;53.406;6.214;2022-10-18T03:32:52;11.20;99.90
62339;DHT22;48368;53.406;6.214;2022-10-18T03:35:19;11.10;99.90
62339;DHT22;48368;53.406;6.214;2022-10-18T03:37:44;11.20;99.90
62339;DHT22;48368;53.406;6.214;2022-10-18T03:40:10;11.20;99.90
62339;DHT22;48368;53.406;6.214;2022-10-18T03:42:36;11.20;99.90
62339;DHT22;48368;53.406;6.214;2022-10-18T03:45:02;11.10;99.90
62339;DHT22;48368;53.406;6.214;2022-10-18T03:47:27;11.10;99.90
62339;DHT22;48368;53.406;6.214;2022-10-18T03:49:53;11.10;99.90
62339;DHT22;48368;53.406;6.214;2022-10-18T03:52:19;11.20;99.90
62339;DHT22;48368;53.406;6.214;2022-10-18T03:54:44;11.20;99.90
62339;DHT22;48368;53.406;6.214;2022-10-18T03:57:10;11.20;99.90
62339;DHT22;48368;53.406;6.214;2022-10-18T03:59:36;11.20;99.90
62339;DHT22;48368;53.406;6.214;2022-10-18T04:02:01;11.10;99.90
62339;DHT22;48368;53.406;6.214;2022-10-18T04:04:27;11.10;99.90
62339;DHT22;48368;53.406;6.214;2022-10-18T04:06:52;11.10;99.90
62339;DHT22;48368;53.406;6.214;2022-10-18T04:09:18;11.10;99.90
62339;DHT22;48368;53.406;6.214;2022-10-18T04:11:44;11.10;99.90
62339;DHT22;48368;53.406;6.214;2022-10-18T04:14:09;11.00;99.90
62339;DHT22;48368;53.406;6.214;2022-10-18T04:16:35;10.90;99.90
62339;DHT22;48368;53.406;6.214;2022-10-18T04:19:00;10.90;99.90
62339;DHT22;48368;53.406;6.214;2022-10-18T04:21:26;10.90;99.90
62339;DHT22;48368;53.406;6.214;2022-10-18T04:23:52;10.80;99.90
62339;DHT22;48368;53.406;6.214;2022-10-18T04:26:17;10.80;99.90
62339;DHT22;48368;53.406;6.214;2022-10-18T04:28:43;10.80;99.90
62339;DHT22;48368;53.406;6.214;2022-10-18T04:31:10;10.80;99.90
62339;DHT22;48368;53.406;6.214;2022-10-18T04:33:36;10.80;99.90
62339;DHT22;48368;53.406;6.214;2022-10-18T04:36:02;10.80;99.90
62339;DHT22;48368;53.406;6.214;2022-10-18T04:38:27;10.70;99.90
62339;DHT22;48368;53.406;6.214;2022-10-18T04:40:53;10.70;99.90
62339;DHT22;48368;53.406;6.214;2022-10-18T04:43:18;10.70;99.90
62339;DHT22;48368;53.406;6.214;2022-10-18T04:45:45;10.70;99.90
62339;DHT22;48368;53.406;6.214;2022-10-18T04:48:11;10.70;99.90
62339;DHT22;48368;53.406;6.214;2022-10-18T04:50:37;10.70;99.90
62339;DHT22;48368;53.406;6.214;2022-10-18T04:53:02;10.70;99.90
62339;DHT22;48368;53.406;6.214;2022-10-18T04:55:28;10.60;99.90
62339;DHT22;48368;53.406;6.214;2022-10-18T04:57:54;10.60;99.90
62339;DHT22;48368;53.406;6.214;2022-10-18T05:00:20;10.50;99.90
62339;DHT22;48368;53.406;6.214;2022-10-18T05:02:45;10.60;99.90
62339;DHT22;48368;53.406;6.214;2022-10-18T05:05:11;10.50;99.90
62339;DHT22;48368;53.406;6.214;2022-10-18T05:07:36;10.40;99.90
62339;DHT22;48368;53.406;6.214;2022-10-18T05:10:03;10.40;99.90
62339;DHT22;48368;53.406;6.214;2022-10-18T05:12:29;10.40;99.90
62339;DHT22;48368;53.406;6.214;2022-10-18T05:14:54;10.40;99.90
62339;DHT22;48368;53.406;6.214;2022-10-18T05:17:20;10.40;99.90
62339;DHT22;48368;53.406;6.214;2022-10-18T05:19:46;10.50;99.90
62339;DHT22;48368;53.406;6.214;2022-10-18T05:22:11;10.50;99.90
62339;DHT22;48368;53.406;6.214;2022-10-18T05:24:37;10.50;99.90
62339;DHT22;48368;53.406;6.214;2022-10-18T05:27:02;10.40;99.90
62339;DHT22;48368;53.406;6.214;2022-10-18T05:29:28;10.40;99.90
62339;DHT22;48368;53.406;6.214;2022-10-18T05:31:54;10.30;99.90
62339;DHT22;48368;53.406;6.214;2022-10-18T05:34:19;10.20;99.90
62339;DHT22;48368;53.406;6.214;2022-10-18T05:36:46;10.30;99.90
62339;DHT22;48368;53.406;6.214;2022-10-18T05:39:14;10.20;99.90
62339;DHT22;48368;53.406;6.214;2022-10-18T05:41:39;10.20;99.90
62339;DHT22;48368;53.406;6.214;2022-10-18T05:44:05;10.20;99.90
62339;DHT22;48368;53.406;6.214;2022-10-18T05:46:31;10.10;99.90
62339;DHT22;48368;53.406;6.214;2022-10-18T05:48:57;10.20;99.90
62339;DHT22;48368;53.406;6.214;2022-10-18T05:51:23;10.20;99.90
62339;DHT22;48368;53.406;6.214;2022-10-18T05:53:48;10.20;99.90
62339;DHT22;48368;53.406;6.214;2022-10-18T05:56:14;10.10;99.90
62339;DHT22;48368;53.406;6.214;2022-10-18T05:58:41;10.10;99.90
62339;DHT22;48368;53.406;6.214;2022-10-18T06:01:08;10.10;99.90
62339;DHT22;48368;53.406;6.214;2022-10-18T06:03:34;10.00;99.90
62339;DHT22;48368;53.406;6.214;2022-10-18T06:06:08;10.00;99.90
62339;DHT22;48368;53.406;6.214;2022-10-18T06:08:35;10.00;99.90
62339;DHT22;48368;53.406;6.214;2022-10-18T06:11:08;9.90;99.90
62339;DHT22;48368;53.406;6.214;2022-10-18T06:13:38;9.90;99.90
62339;DHT22;48368;53.406;6.214;2022-10-18T06:16:04;9.80;99.90
62339;DHT22;48368;53.406;6.214;2022-10-18T06:18:30;9.80;99.90
62339;DHT22;48368;53.406;6.214;2022-10-18T06:20:59;9.80;99.90
62339;DHT22;48368;53.406;6.214;2022-10-18T06:23:26;9.80;99.90
62339;DHT22;48368;53.406;6.214;2022-10-18T06:25:52;9.70;99.90
62339;DHT22;48368;53.406;6.214;2022-10-18T06:28:18;9.70;99.90
62339;DHT22;48368;53.406;6.214;2022-10-18T06:30:44;9.70;99.90
62339;DHT22;48368;53.406;6.214;2022-10-18T06:33:09;9.70;99.90
62339;DHT22;48368;53.406;6.214;2022-10-18T06:35:36;9.60;99.90
62339;DHT22;48368;53.406;6.214;2022-10-18T06:38:02;9.70;99.90
62339;DHT22;48368;53.406;6.214;2022-10-18T06:40:28;9.70;99.90
62339;DHT22;48368;53.406;6.214;2022-10-18T06:42:55;9.70;99.90
62339;DHT22;48368;53.406;6.214;2022-10-18T06:45:21;9.60;99.90
62339;DHT22;48368;53.406;6.214;2022-10-18T06:47:46;9.60;99.90
62339;DHT22;48368;53.406;6.214;2022-10-18T06:50:12;9.60;99.90
62339;DHT22;48368;53.406;6.214;2022-10-18T06:52:38;9.60;99.90
62339;DHT22;48368;53.406;6.214;2022-10-18T06:55:06;9.60;99.90
62339;DHT22;48368;53.406;6.214;2022-10-18T06:57:32;9.60;99.90
62339;DHT22;48368;53.406;6.214;2022-10-18T06:59:57;9.60;99.90
62339;DHT22;48368;53.406;6.214;2022-10-18T07:02:23;9.60;99.90
62339;DHT22;48368;53.406;6.214;2022-10-18T07:04:49;9.60;99.90
62339;DHT22;48368;53.406;6.214;2022-10-18T07:07:14;9.70;99.90
62339;DHT22;48368;53.406;6.214;2022-10-18T07:09:40;9.80;99.90
62339;DHT22;48368;53.406;6.214;2022-10-18T07:12:05;9.80;99.90
62339;DHT22;48368;53.406;6.214;2022-10-18T07:14:31;9.80;99.90
62339;DHT22;48368;53.406;6.214;2022-10-18T07:16:58;9.90;99.90
62339;DHT22;48368;53.406;6.214;2022-10-18T07:19:24;10.00;99.90
62339;DHT22;48368;53.406;6.214;2022-10-18T07:21:49;10.00;99.90
62339;DHT22;48368;53.406;6.214;2022-10-18T07:24:15;10.10;99.90
62339;DHT22;48368;53.406;6.214;2022-10-18T07:26:41;10.10;99.90
62339;DHT22;48368;53.406;6.214;2022-10-18T07:29:09;10.10;99.90
62339;DHT22;48368;53.406;6.214;2022-10-18T07:31:35;10.20;99.90
62339;DHT22;48368;53.406;6.214;2022-10-18T07:34:04;10.30;99.90
62339;DHT22;48368;53.406;6.214;2022-10-18T07:36:30;10.40;99.90
62339;DHT22;48368;53.406;6.214;2022-10-18T07:38:56;10.40;99.90
62339;DHT22;48368;53.406;6.214;2022-10-18T07:41:22;10.50;99.90
62339;DHT22;48368;53.406;6.214;2022-10-18T07:43:50;10.60;99.90
62339;DHT22;48368;53.406;6.214;2022-10-18T07:46:17;10.60;99.90
62339;DHT22;48368;53.406;6.214;2022-10-18T07:48:43;10.70;99.90
62339;DHT22;48368;53.406;6.214;2022-10-18T07:51:10;10.80;99.90
62339;DHT22;48368;53.406;6.214;2022-10-18T07:53:36;10.80;99.90
62339;DHT22;48368;53.406;6.214;2022-10-18T07:56:04;11.00;99.90
62339;DHT22;48368;53.406;6.214;2022-10-18T07:58:31;11.00;99.90
62339;DHT22;48368;53.406;6.214;2022-10-18T08:01:00;11.10;99.90
62339;DHT22;48368;53.406;6.214;2022-10-18T08:03:27;11.20;99.90
62339;DHT22;48368;53.406;6.214;2022-10-18T08:05:54;11.30;99.90
62339;DHT22;48368;53.406;6.214;2022-10-18T08:08:21;11.40;99.90
62339;DHT22;48368;53.406;6.214;2022-10-18T08:10:47;11.50;99.90
62339;DHT22;48368;53.406;6.214;2022-10-18T08:13:12;11.50;99.90
62339;DHT22;48368;53.406;6.214;2022-10-18T08:15:38;11.60;99.90
62339;DHT22;48368;53.406;6.214;2022-10-18T08:18:04;11.70;99.90
62339;DHT22;48368;53.406;6.214;2022-10-18T08:20:29;11.80;99.90
62339;DHT22;48368;53.406;6.214;2022-10-18T08:22:56;11.80;99.90
62339;DHT22;48368;53.406;6.214;2022-10-18T08:25:21;11.90;99.90
62339;DHT22;48368;53.406;6.214;2022-10-18T08:27:47;11.90;99.90
62339;DHT22;48368;53.406;6.214;2022-10-18T08:30:13;12.00;99.90
62339;DHT22;48368;53.406;6.214;2022-10-18T08:32:39;12.10;99.90
62339;DHT22;48368;53.406;6.214;2022-10-18T08:35:05;12.20;99.90
62339;DHT22;48368;53.406;6.214;2022-10-18T08:37:31;12.20;99.90
62339;DHT22;48368;53.406;6.214;2022-10-18T08:39:57;12.30;99.90
62339;DHT22;48368;53.406;6.214;2022-10-18T08:42:40;12.40;99.90
62339;DHT22;48368;53.406;6.214;2022-10-18T08:45:11;12.50;99.90
62339;DHT22;48368;53.406;6.214;2022-10-18T08:47:45;12.60;99.90
62339;DHT22;48368;53.406;6.214;2022-10-18T08:50:14;12.70;99.90
62339;DHT22;48368;53.406;6.214;2022-10-18T08:53:13;12.80;99.90
62339;DHT22;48368;53.406;6.214;2022-10-18T08:56:04;12.90;99.90
62339;DHT22;48368;53.406;6.214;2022-10-18T08:58:35;13.00;99.90
62339;DHT22;48368;53.406;6.214;2022-10-18T09:04:47;13.00;99.90
62339;DHT22;48368;53.406;6.214;2022-10-18T09:09:58;13.20;99.90
62339;DHT22;48368;53.406;6.214;2022-10-18T09:15:19;13.50;99.90
62339;DHT22;48368;53.406;6.214;2022-10-18T09:20:32;13.60;99.90
62339;DHT22;48368;53.406;6.214;2022-10-18T09:25:48;13.90;99.90
62339;DHT22;48368;53.406;6.214;2022-10-18T09:28:44;14.00;99.90
62339;DHT22;48368;53.406;6.214;2022-10-18T09:36:31;14.40;99.90
62339;DHT22;48368;53.406;6.214;2022-10-18T09:39:12;14.50;99.90
62339;DHT22;48368;53.406;6.214;2022-10-18T09:41:55;14.50;99.90
62339;DHT22;48368;53.406;6.214;2022-10-18T09:44:40;14.70;99.90
62339;DHT22;48368;53.406;6.214;2022-10-18T09:47:11;14.80;99.90
62339;DHT22;48368;53.406;6.214;2022-10-18T09:49:42;14.80;99.90
62339;DHT22;48368;53.406;6.214;2022-10-18T09:52:24;14.80;99.90
62339;DHT22;48368;53.406;6.214;2022-10-18T09:55:07;14.90;99.90
62339;DHT22;48368;53.406;6.214;2022-10-18T09:57:34;15.00;99.90
62339;DHT22;48368;53.406;6.214;2022-10-18T10:00:04;15.10;99.90
62339;DHT22;48368;53.406;6.214;2022-10-18T10:02:31;15.20;99.90
62339;DHT22;48368;53.406;6.214;2022-10-18T10:04:56;15.20;99.90
62339;DHT22;48368;53.406;6.214;2022-10-18T10:07:28;15.30;99.90
62339;DHT22;48368;53.406;6.214;2022-10-18T10:10:19;15.30;99.90
62339;DHT22;48368;53.406;6.214;2022-10-18T10:12:45;15.30;99.90
62339;DHT22;48368;53.406;6.214;2022-10-18T10:15:20;15.40;99.90
62339;DHT22;48368;53.406;6.214;2022-10-18T10:18:01;15.50;99.90
62339;DHT22;48368;53.406;6.214;2022-10-18T10:20:40;15.40;99.90
62339;DHT22;48368;53.406;6.214;2022-10-18T10:23:13;15.40;99.90
62339;DHT22;48368;53.406;6.214;2022-10-18T10:25:41;15.30;99.90
62339;DHT22;48368;53.406;6.214;2022-10-18T10:28:15;15.40;99.90
62339;DHT22;48368;53.406;6.214;2022-10-18T10:30:43;15.40;99.90
62339;DHT22;48368;53.406;6.214;2022-10-18T10:33:32;15.40;99.90
62339;DHT22;48368;53.406;6.214;2022-10-18T10:36:00;15.50;99.90
62339;DHT22;48368;53.406;6.214;2022-10-18T10:38:28;15.60;99.90
62339;DHT22;48368;53.406;6.214;2022-10-18T10:40:55;15.70;99.90
62339;DHT22;48368;53.406;6.214;2022-10-18T10:43:32;15.70;99.90
62339;DHT22;48368;53.406;6.214;2022-10-18T10:48:25;15.70;99.90
62339;DHT22;48368;53.406;6.214;2022-10-18T10:51:00;15.70;99.90
62339;DHT22;48368;53.406;6.214;2022-10-18T10:55:55;15.80;99.90
62339;DHT22;48368;53.406;6.214;2022-10-18T10:58:22;15.90;99.90
62339;DHT22;48368;53.406;6.214;2022-10-18T11:00:48;15.90;99.90
62339;DHT22;48368;53.406;6.214;2022-10-18T11:03:21;16.00;99.90
62339;DHT22;48368;53.406;6.214;2022-10-18T11:05:50;16.00;99.90
62339;DHT22;48368;53.406;6.214;2022-10-18T11:08:25;16.00;99.90
62339;DHT22;48368;53.406;6.214;2022-10-18T11:11:12;16.10;99.90
62339;DHT22;48368;53.406;6.214;2022-10-18T11:13:50;16.20;99.90
62339;DHT22;48368;53.406;6.214;2022-10-18T11:16:41;16.20;99.90
62339;DHT22;48368;53.406;6.214;2022-10-18T11:22:20;16.30;99.90
62339;DHT22;48368;53.406;6.214;2022-10-18T11:24:48;16.30;99.90
62339;DHT22;48368;53.406;6.214;2022-10-18T11:27:40;16.30;99.90
62339;DHT22;48368;53.406;6.214;2022-10-18T11:30:25;16.40;99.90
62339;DHT22;48368;53.406;6.214;2022-10-18T11:33:38;16.50;99.90
62339;DHT22;48368;53.406;6.214;2022-10-18T11:36:11;16.40;99.90
62339;DHT22;48368;53.406;6.214;2022-10-18T11:41:36;16.40;99.90
62339;DHT22;48368;53.406;6.214;2022-10-18T11:44:18;16.20;99.90
62339;DHT22;48368;53.406;6.214;2022-10-18T12:06:14;16.40;99.90
62339;DHT22;48368;53.406;6.214;2022-10-18T12:08:45;16.30;99.90
62339;DHT22;48368;53.406;6.214;2022-10-18T12:11:22;16.30;99.90
62339;DHT22;48368;53.406;6.214;2022-10-18T12:13:59;16.20;99.90
62339;DHT22;48368;53.406;6.214;2022-10-18T12:16:29;16.30;99.90
62339;DHT22;48368;53.406;6.214;2022-10-18T12:18:58;16.30;99.90
62339;DHT22;48368;53.406;6.214;2022-10-18T12:21:26;16.40;99.90
62339;DHT22;48368;53.406;6.214;2022-10-18T12:23:54;16.40;99.90
62339;DHT22;48368;53.406;6.214;2022-10-18T12:26:22;16.40;99.90
62339;DHT22;48368;53.406;6.214;2022-10-18T12:31:28;16.40;99.90
62339;DHT22;48368;53.406;6.214;2022-10-18T12:34:02;16.40;99.90
62339;DHT22;48368;53.406;6.214;2022-10-18T12:39:29;16.50;99.90
62339;DHT22;48368;53.406;6.214;2022-10-18T12:41:58;16.30;99.90
62339;DHT22;48368;53.406;6.214;2022-10-18T12:44:30;16.40;99.90
62339;DHT22;48368;53.406;6.214;2022-10-18T12:46:57;16.40;99.90
62339;DHT22;48368;53.406;6.214;2022-10-18T12:49:29;16.50;99.90
62339;DHT22;48368;53.406;6.214;2022-10-18T12:52:01;16.50;99.90
62339;DHT22;48368;53.406;6.214;2022-10-18T12:54:28;16.50;99.90
62339;DHT22;48368;53.406;6.214;2022-10-18T12:56:55;16.40;99.90
62339;DHT22;48368;53.406;6.214;2022-10-18T13:09:36;16.40;99.90
62339;DHT22;48368;53.406;6.214;2022-10-18T13:17:26;16.40;99.90
62339;DHT22;48368;53.406;6.214;2022-10-18T13:23:00;16.20;99.90
62339;DHT22;48368;53.406;6.214;2022-10-18T13:31:38;16.20;99.90
62339;DHT22;48368;53.406;6.214;2022-10-18T13:34:24;16.10;99.90
62339;DHT22;48368;53.406;6.214;2022-10-18T13:37:04;16.10;99.90
62339;DHT22;48368;53.406;6.214;2022-10-18T13:39:31;16.20;99.90
62339;DHT22;48368;53.406;6.214;2022-10-18T13:44:34;16.00;99.90
62339;DHT22;48368;53.406;6.214;2022-10-18T13:59:57;15.50;99.90
62339;DHT22;48368;53.406;6.214;2022-10-18T14:02:52;15.50;99.90
62339;DHT22;48368;53.406;6.214;2022-10-18T14:05:52;15.50;99.90
62339;DHT22;48368;53.406;6.214;2022-10-18T14:08:31;15.50;99.90
62339;DHT22;48368;53.406;6.214;2022-10-18T14:11:20;15.50;99.90
62339;DHT22;48368;53.406;6.214;2022-10-18T14:13:54;15.40;99.90
62339;DHT22;48368;53.406;6.214;2022-10-18T14:16:41;15.30;99.90
62339;DHT22;48368;53.406;6.214;2022-10-18T14:19:30;15.30;99.90
62339;DHT22;48368;53.406;6.214;2022-10-18T14:22:09;15.20;99.90
62339;DHT22;48368;53.406;6.214;2022-10-18T14:24:38;15.20;99.90
62339;DHT22;48368;53.406;6.214;2022-10-18T14:27:22;15.10;99.90
62339;DHT22;48368;53.406;6.214;2022-10-18T14:29:49;15.00;99.90
62339;DHT22;48368;53.406;6.214;2022-10-18T14:32:27;14.90;99.90
62339;DHT22;48368;53.406;6.214;2022-10-18T14:34:53;14.90;99.90
62339;DHT22;48368;53.406;6.214;2022-10-18T14:37:38;14.90;99.90
62339;DHT22;48368;53.406;6.214;2022-10-18T14:40:04;14.90;99.90
62339;DHT22;48368;53.406;6.214;2022-10-18T14:42:30;14.80;99.90
62339;DHT22;48368;53.406;6.214;2022-10-18T14:44:55;14.80;99.90
62339;DHT22;48368;53.406;6.214;2022-10-18T14:47:26;14.80;99.90
62339;DHT22;48368;53.406;6.214;2022-10-18T14:49:53;14.60;99.90
62339;DHT22;48368;53.406;6.214;2022-10-18T14:52:45;14.60;99.90
62339;DHT22;48368;53.406;6.214;2022-10-18T14:55:23;14.60;99.90
62339;DHT22;48368;53.406;6.214;2022-10-18T14:57:49;14.60;99.90
62339;DHT22;48368;53.406;6.214;2022-10-18T15:00:36;14.60;99.90
62339;DHT22;48368;53.406;6.214;2022-10-18T15:03:05;14.40;99.90
62339;DHT22;48368;53.406;6.214;2022-10-18T15:05:34;14.50;99.90
62339;DHT22;48368;53.406;6.214;2022-10-18T15:08:00;14.30;99.90
62339;DHT22;48368;53.406;6.214;2022-10-18T15:10:31;14.40;99.90
62339;DHT22;48368;53.406;6.214;2022-10-18T15:12:58;14.30;99.90
62339;DHT22;48368;53.406;6.214;2022-10-18T15:15:31;14.40;99.90
62339;DHT22;48368;53.406;6.214;2022-10-18T15:17:58;14.40;99.90
62339;DHT22;48368;53.406;6.214;2022-10-18T15:20:32;14.40;99.90
62339;DHT22;48368;53.406;6.214;2022-10-18T15:23:21;14.40;99.90
62339;DHT22;48368;53.406;6.214;2022-10-18T15:25:48;14.40;99.90
62339;DHT22;48368;53.406;6.214;2022-10-18T15:28:31;14.40;99.90
62339;DHT22;48368;53.406;6.214;2022-10-18T15:30:57;14.40;99.90
62339;DHT22;48368;53.406;6.214;2022-10-18T15:33:24;14.40;99.90
62339;DHT22;48368;53.406;6.214;2022-10-18T15:35:52;14.20;99.90
62339;DHT22;48368;53.406;6.214;2022-10-18T15:38:28;14.20;99.90
62339;DHT22;48368;53.406;6.214;2022-10-18T15:40:57;14.10;99.90
62339;DHT22;48368;53.406;6.214;2022-10-18T15:48:29;14.00;99.90
62339;DHT22;48368;53.406;6.214;2022-10-18T15:50:58;14.00;99.90
62339;DHT22;48368;53.406;6.214;2022-10-18T15:53:35;14.10;99.90
62339;DHT22;48368;53.406;6.214;2022-10-18T15:58:43;14.00;99.90
62339;DHT22;48368;53.406;6.214;2022-10-18T16:01:16;14.00;99.90
62339;DHT22;48368;53.406;6.214;2022-10-18T16:03:43;13.90;99.90
62339;DHT22;48368;53.406;6.214;2022-10-18T16:06:10;13.90;99.90
62339;DHT22;48368;53.406;6.214;2022-10-18T16:08:39;13.90;99.90
62339;DHT22;48368;53.406;6.214;2022-10-18T16:11:07;14.00;99.90
62339;DHT22;48368;53.406;6.214;2022-10-18T16:13:33;13.90;99.90
62339;DHT22;48368;53.406;6.214;2022-10-18T16:15:59;13.90;99.90
62339;DHT22;48368;53.406;6.214;2022-10-18T16:18:25;13.90;99.90
62339;DHT22;48368;53.406;6.214;2022-10-18T16:20:51;13.90;99.90
62339;DHT22;48368;53.406;6.214;2022-10-18T16:23:35;13.90;99.90
62339;DHT22;48368;53.406;6.214;2022-10-18T16:26:01;13.90;99.90
62339;DHT22;48368;53.406;6.214;2022-10-18T16:28:26;13.80;99.90
62339;DHT22;48368;53.406;6.214;2022-10-18T16:30:57;13.80;99.90
62339;DHT22;48368;53.406;6.214;2022-10-18T16:33:24;13.80;99.90
62339;DHT22;48368;53.406;6.214;2022-10-18T16:35:51;13.80;99.90
62339;DHT22;48368;53.406;6.214;2022-10-18T16:38:30;13.90;99.90
62339;DHT22;48368;53.406;6.214;2022-10-18T16:40:56;13.90;99.90
62339;DHT22;48368;53.406;6.214;2022-10-18T16:43:22;13.80;99.90
62339;DHT22;48368;53.406;6.214;2022-10-18T16:45:49;13.80;99.90
62339;DHT22;48368;53.406;6.214;2022-10-18T16:48:18;13.70;99.90
62339;DHT22;48368;53.406;6.214;2022-10-18T16:50:45;13.80;99.90
62339;DHT22;48368;53.406;6.214;2022-10-18T16:53:11;13.80;99.90
62339;DHT22;48368;53.406;6.214;2022-10-18T16:55:38;13.80;99.90
62339;DHT22;48368;53.406;6.214;2022-10-18T16:58:04;13.80;99.90
62339;DHT22;48368;53.406;6.214;2022-10-18T17:00:30;13.90;99.90
62339;DHT22;48368;53.406;6.214;2022-10-18T17:02:56;13.80;99.90
62339;DHT22;48368;53.406;6.214;2022-10-18T17:05:22;13.80;99.90
62339;DHT22;48368;53.406;6.214;2022-10-18T17:07:48;13.70;99.90
62339;DHT22;48368;53.406;6.214;2022-10-18T17:10:16;13.70;99.90
62339;DHT22;48368;53.406;6.214;2022-10-18T17:12:42;13.60;99.90
62339;DHT22;48368;53.406;6.214;2022-10-18T17:15:08;13.60;99.90
62339;DHT22;48368;53.406;6.214;2022-10-18T17:17:35;13.50;99.90
62339;DHT22;48368;53.406;6.214;2022-10-18T17:20:04;13.50;99.90
62339;DHT22;48368;53.406;6.214;2022-10-18T17:22:30;13.50;99.90
62339;DHT22;48368;53.406;6.214;2022-10-18T17:24:55;13.50;99.90
62339;DHT22;48368;53.406;6.214;2022-10-18T17:27:21;13.50;99.90
62339;DHT22;48368;53.406;6.214;2022-10-18T17:29:47;13.50;99.90
62339;DHT22;48368;53.406;6.214;2022-10-18T17:32:12;13.50;99.90
62339;DHT22;48368;53.406;6.214;2022-10-18T17:34:38;13.50;99.90
62339;DHT22;48368;53.406;6.214;2022-10-18T17:37:04;13.40;99.90
62339;DHT22;48368;53.406;6.214;2022-10-18T17:39:30;13.40;99.90
62339;DHT22;48368;53.406;6.214;2022-10-18T17:41:56;13.50;99.90
62339;DHT22;48368;53.406;6.214;2022-10-18T17:44:22;13.50;99.90
62339;DHT22;48368;53.406;6.214;2022-10-18T17:46:49;13.50;99.90
62339;DHT22;48368;53.406;6.214;2022-10-18T17:49:14;13.50;99.90
62339;DHT22;48368;53.406;6.214;2022-10-18T17:51:41;13.50;99.90